Taholah, Washington
Current Conditions -  °F | °C
As of 3:15 AM on Tuesday 21 Oct 2014 (Local Time) from KHQM Reporting Station
Broken Clouds Broken Clouds  
Wind Chill: 57°   Ceiling: 2300
Heat Index: 57°   Visibility: 8mi
Dew Point: 55°   Wind: 9mph
Humidity: 93%   Direction: 140°SE
Pressure: 29.8"   Gusts: NA
Location:  47.35°N, 124.3°W
Report Text: KHQM 211015Z AUTO 14008KT 8SM SCT014 BKN023 BKN043 14/13 A2980 RMK AO2 T01390128
Loading
Personal Weather Stations






























Interactive Weather Map
Tropical Storm Tracking
New forecast layout! Learn more

10-Day Weather Forecast

Advertisements
Track Severe Weather on mobile